CW6242 Cefala IT current weather conditions

sailwx.info

Wind from 180 at 2 knots gusting 4

Air temperature 20.6° C
Dewpoint 17.4° C

Last reported at 2019-Sep-21 04:00 UTC.
Time now 2019-Sep-21 04:41 UTC

Location: N 38°01' E 013°58'.
View on Google Maps.

See reports from other nearby stations

  
Tides and Currents Weather Stations Pressure Air Temp Water Temp Dewpoint Dewpoint Depression Visibility Wind Speed Wind Dir Waves Ship Positions
date/time (UTC)wind fromknots sea level pressurealtimeterstation pressurevisibilityair tempwater tempwave heightnotes
2019-Sep-21 04:00 180 2 gusting 4 20.6
2019-Sep-21 03:50 180 2 gusting 4 20.6
2019-Sep-21 03:40 180 2 gusting 4 20.6
2019-Sep-21 03:30 158 2 gusting 4 20.6
2019-Sep-21 03:20 158 2 gusting 5 20.6
2019-Sep-21 03:10 180 2 gusting 5 20.6
2019-Sep-21 03:00 180 2 gusting 5 20.6
2019-Sep-21 02:50 180 1 gusting 4 20.6
2019-Sep-21 02:40 113 0 gusting 3 21.1
2019-Sep-21 02:30 158 0 gusting 2 21.1
2019-Sep-21 02:20 180 1 gusting 4 21.1
2019-Sep-21 02:10 203 0 gusting 3 21.1
2019-Sep-21 02:00 180 2 gusting 4 21.1
2019-Sep-21 01:50 180 2 gusting 4 21.1
2019-Sep-21 01:40 180 1 gusting 3 21.1
2019-Sep-21 01:30 203 2 gusting 4 21.1
2019-Sep-21 01:20 180 2 gusting 3 21.1
2019-Sep-21 01:10 203 2 gusting 4 21.1
2019-Sep-21 01:00 180 3 gusting 4 21.1
2019-Sep-21 00:50 203 2 gusting 4 21.1
2019-Sep-21 00:40 225 2 gusting 3 21.7
2019-Sep-21 00:30 203 1 gusting 3 21.1
2019-Sep-21 00:20 180 2 gusting 4 21.1
2019-Sep-21 00:10 180 2 gusting 4 21.1
2019-Sep-21 00:00 180 2 gusting 3 21.1
2019-Sep-20 23:50 180 1 gusting 2 21.1
2019-Sep-20 23:40 180 0 gusting 3 21.1
2019-Sep-20 23:30 21.7
2019-Sep-20 23:20 21.7
2019-Sep-20 23:10 21.1
2019-Sep-20 23:00 21.1
2019-Sep-20 22:50 180 1 gusting 4 21.1
2019-Sep-20 22:40 180 2 gusting 3 21.1
2019-Sep-20 22:30 158 3 gusting 6 21.1
2019-Sep-20 22:20 158 2 gusting 6 21.1
2019-Sep-20 22:10 180 2 gusting 4 21.1
2019-Sep-20 22:00 180 1 gusting 4 21.1
2019-Sep-20 21:50 180 1 gusting 3 21.1
2019-Sep-20 21:40 180 2 gusting 4 21.1
2019-Sep-20 21:30 203 1 gusting 2 21.7
2019-Sep-20 21:20 21.7
2019-Sep-20 21:10 203 0 gusting 2 21.7
2019-Sep-20 21:00 180 2 gusting 4 21.7
2019-Sep-20 20:50 21.7
2019-Sep-20 20:40 21.7
2019-Sep-20 20:30 180 1 gusting 3 21.7
2019-Sep-20 20:20 180 1 gusting 4 21.7
2019-Sep-20 20:10 180 1 gusting 3 22.2
2019-Sep-20 20:00 22.2
2019-Sep-20 19:50 180 1 gusting 3 22.2
2019-Sep-20 19:40 203 1 gusting 2 22.2
2019-Sep-20 19:30 180 1 gusting 4 21.7
2019-Sep-20 19:20 180 3 gusting 5 22.2
2019-Sep-20 19:10 203 1 gusting 3 21.7
2019-Sep-20 19:00 180 1 gusting 3 22.2
2019-Sep-20 18:50 203 1 gusting 2 22.2
2019-Sep-20 18:40 203 1 gusting 3 22.2
2019-Sep-20 18:30 203 1 gusting 4 22.2
2019-Sep-20 18:20 22.8
2019-Sep-20 18:10 248 0 gusting 2 23.3
2019-Sep-20 18:00 203 1 gusting 6 22.8
2019-Sep-20 17:50 090 5 gusting 10 22.8
2019-Sep-20 17:40 068 1 gusting 5 22.2
2019-Sep-20 17:30 068 1 gusting 6 22.2
2019-Sep-20 17:20 068 0 gusting 4 22.8
2019-Sep-20 17:10 068 1 gusting 3 22.8
2019-Sep-20 17:00 068 1 gusting 3 22.8
2019-Sep-20 16:50 068 1 gusting 4 22.8
2019-Sep-20 16:40 068 2 gusting 7 22.8
2019-Sep-20 16:30 045 3 gusting 6 22.8
2019-Sep-20 16:20 045 4 gusting 9 23.3
2019-Sep-20 16:10 045 2 gusting 6 23.3
2019-Sep-20 16:00 045 3 gusting 7 23.3
2019-Sep-20 15:50 045 3 gusting 7 23.3
2019-Sep-20 15:40 045 2 gusting 6 23.9
2019-Sep-20 15:30 045 1 gusting 4 23.9
2019-Sep-20 15:20 045 1 gusting 4 24.4
2019-Sep-20 15:10 068 0 gusting 3 25.0
2019-Sep-20 15:00 180 0 gusting 1 25.6
2019-Sep-20 14:50 225 0 gusting 2 24.4
2019-Sep-20 14:40 23.9
2019-Sep-20 14:30 068 1 gusting 3 23.9
2019-Sep-20 14:20 045 2 gusting 6 23.9
2019-Sep-20 14:10 045 3 gusting 7 23.9
2019-Sep-20 14:00 045 5 gusting 11 23.9
2019-Sep-20 13:50 045 6 gusting 11 24.4
2019-Sep-20 13:40 045 5 gusting 9 24.4
2019-Sep-20 13:30 068 5 gusting 9 24.4
2019-Sep-20 13:20 068 5 gusting 11 24.4
2019-Sep-20 13:10 068 6 gusting 12 24.4
2019-Sep-20 13:00 068 7 gusting 13 24.4
2019-Sep-20 12:50 045 5 gusting 13 24.4
2019-Sep-20 12:40 045 5 gusting 11 24.4
2019-Sep-20 12:30 068 5 gusting 11 25.0
2019-Sep-20 12:20 045 3 gusting 7 25.0
2019-Sep-20 12:10 045 3 gusting 7 25.0
2019-Sep-20 12:00 068 4 gusting 9 25.0
2019-Sep-20 11:50 068 4 gusting 10 25.0
2019-Sep-20 11:40 045 4 gusting 9 25.6
2019-Sep-20 11:30 068 3 gusting 8 25.0
2019-Sep-20 11:20 068 5 gusting 10 25.0
2019-Sep-20 11:10 068 4 gusting 8 25.0
2019-Sep-20 11:00 068 4 gusting 8 25.0
2019-Sep-20 10:50 045 3 gusting 10 25.6
2019-Sep-20 10:40 068 5 gusting 8 25.6
2019-Sep-20 10:30 068 5 gusting 9 25.0
2019-Sep-20 10:20 090 4 gusting 9 25.6
2019-Sep-20 10:10 068 5 gusting 11 25.6
2019-Sep-20 10:00 068 5 gusting 10 25.6
2019-Sep-20 09:50 068 6 gusting 9 25.0
2019-Sep-20 09:40 068 4 gusting 9 25.6
2019-Sep-20 09:30 068 3 gusting 9 25.6
2019-Sep-20 09:20 090 4 gusting 7 25.0
2019-Sep-20 09:10 068 2 gusting 6 25.0
2019-Sep-20 09:00 113 1 gusting 4 25.0
2019-Sep-20 08:50 023 1 gusting 4 24.4
2019-Sep-20 08:40 023 1 gusting 3 23.9
2019-Sep-20 08:30 338 0 gusting 3 24.4
2019-Sep-20 08:20 270 0 gusting 3 24.4
2019-Sep-20 08:10 023 0 gusting 3 25.0
2019-Sep-20 08:00 25.0
2019-Sep-20 07:50 270 0 gusting 2 25.6
2019-Sep-20 07:40 338 0 gusting 1 25.6
2019-Sep-20 07:30 068 0 gusting 2 25.0
2019-Sep-20 07:20 25.0
2019-Sep-20 07:10 023 0 gusting 1 25.0
2019-Sep-20 07:00 090 0 gusting 2 23.9
2019-Sep-20 06:50 113 0 gusting 1 23.3
2019-Sep-20 06:40 135 1 gusting 4 23.3
2019-Sep-20 06:30 23.3
2019-Sep-20 06:20 135 1 gusting 4 22.2
2019-Sep-20 06:10 180 2 gusting 6 21.7
2019-Sep-20 06:00 180 2 gusting 5 21.7
2019-Sep-20 05:50 180 2 gusting 4 21.1
2019-Sep-20 05:40 180 2 gusting 5 21.1
2019-Sep-20 05:30 203 2 gusting 4 21.1
2019-Sep-20 05:20 203 0 gusting 2 21.7
2019-Sep-20 05:10 21.7
2019-Sep-20 05:00 203 1 gusting 3 21.7
2019-Sep-20 04:50 180 2 gusting 4 21.1
2019-Sep-20 04:40 203 1 gusting 2 21.7
2019-Sep-20 04:30 180 2 gusting 6 21.1
2019-Sep-20 04:20 158 1 gusting 5 21.1
2019-Sep-20 04:10 22.2
2019-Sep-20 04:00 22.2
2019-Sep-20 03:50 22.2
2019-Sep-20 03:40 21.7
2019-Sep-20 03:30 158 0 gusting 3 21.7
2019-Sep-20 03:20 135 1 gusting 6 21.7
2019-Sep-20 03:10 180 1 gusting 3 22.2
2019-Sep-20 03:00 180 1 gusting 4 22.2
2019-Sep-20 02:50 203 1 gusting 4 22.2
2019-Sep-20 02:40 203 2 gusting 4 21.7
2019-Sep-20 02:30 203 1 gusting 3 21.7
2019-Sep-20 02:20 180 2 gusting 4 21.7
2019-Sep-20 02:10 180 2 gusting 4 21.7
2019-Sep-20 02:00 180 0 gusting 2 21.7
2019-Sep-20 01:50 180 1 gusting 3 21.7
2019-Sep-20 01:40 203 1 gusting 3 21.7
2019-Sep-20 01:30 22.2
2019-Sep-20 01:20 203 0 gusting 3 21.7
2019-Sep-20 01:10 203 1 gusting 2 22.2
2019-Sep-20 01:00 180 1 gusting 3 21.7
2019-Sep-20 00:50 248 1 gusting 1 22.2
2019-Sep-20 00:40 225 0 gusting 1 22.8
2019-Sep-20 00:30 203 0 gusting 2 22.2
2019-Sep-20 00:20 203 1 gusting 3 22.2
2019-Sep-20 00:10 225 2 gusting 4 22.8
2019-Sep-20 00:00 225 2 gusting 5 22.8
2019-Sep-19 23:50 225 2 gusting 4 22.8
2019-Sep-19 23:40 203 2 gusting 4 22.2
2019-Sep-19 23:30 225 1 gusting 4 22.8
2019-Sep-19 23:20 203 1 gusting 3 22.8
2019-Sep-19 23:10 180 1 gusting 3 22.2
2019-Sep-19 23:00 180 2 gusting 3 22.2
2019-Sep-19 22:50 180 2 gusting 5 22.2
2019-Sep-19 22:40 180 2 gusting 4 22.2
2019-Sep-19 22:30 180 2 gusting 5 22.2
2019-Sep-19 22:20 180 3 gusting 6 22.2
2019-Sep-19 22:10 180 3 gusting 6 22.2
2019-Sep-19 22:00 180 2 gusting 4 22.2
2019-Sep-19 21:50 180 3 gusting 5 22.2
2019-Sep-19 21:40 203 2 gusting 4 22.2
2019-Sep-19 21:30 203 2 gusting 4 22.8
2019-Sep-19 21:20 203 2 gusting 4 22.8
2019-Sep-19 21:10 180 3 gusting 5 22.8
2019-Sep-19 21:00 180 3 gusting 5 22.8
2019-Sep-19 20:50 180 2 gusting 5 22.8
2019-Sep-19 20:40 180 2 gusting 5 22.8
2019-Sep-19 20:30 158 1 gusting 3 22.8
2019-Sep-19 20:20 180 2 gusting 6 22.2
2019-Sep-19 20:10 180 3 gusting 5 22.2
2019-Sep-19 20:00 180 2 gusting 5 22.2
2019-Sep-19 19:50 180 3 gusting 6 22.2
2019-Sep-19 19:40 180 3 gusting 4 22.2
2019-Sep-19 19:30 180 3 gusting 5 22.2
2019-Sep-19 19:20 158 1 gusting 3 22.8
2019-Sep-19 19:10 180 1 gusting 4 22.2
2019-Sep-19 19:00 203 2 gusting 5 22.2
2019-Sep-19 18:50 225 2 gusting 4 22.8
2019-Sep-19 18:40 203 2 gusting 4 23.3
2019-Sep-19 18:30 225 3 gusting 6 23.3
2019-Sep-19 18:20 225 5 gusting 8 23.3
2019-Sep-19 18:10 225 7 gusting 13 22.8
2019-Sep-19 18:00 225 6 gusting 13 22.2
2019-Sep-19 17:50 248 7 gusting 13 20.0
2019-Sep-19 17:40 248 13 gusting 23 20.6
2019-Sep-19 17:30 225 9 gusting 19 22.2
2019-Sep-19 17:20 248 1 gusting 6 22.8
2019-Sep-19 17:10 225 5 gusting 9 22.8
2019-Sep-19 17:00 225 5 gusting 9 22.8
2019-Sep-19 16:50 225 4 gusting 7 22.8
2019-Sep-19 16:40 22.2
2019-Sep-19 16:30 248 0 gusting 3 21.7
2019-Sep-19 16:20 203 1 gusting 4 21.7
2019-Sep-19 16:10 203 3 gusting 6 21.7
2019-Sep-19 16:00 203 4 gusting 6 21.7
2019-Sep-19 15:50 158 3 gusting 7 22.2
2019-Sep-19 15:40 248 1 gusting 6 22.2
2019-Sep-19 15:30 248 4 gusting 18 22.8
2019-Sep-19 15:20 113 7 gusting 16 23.3
2019-Sep-19 15:10 068 8 gusting 13 23.3
2019-Sep-19 15:00 090 7 gusting 13 23.9
2019-Sep-19 14:50 045 9 gusting 15 23.9
2019-Sep-19 14:40 068 11 gusting 21 23.9
2019-Sep-19 14:30 068 11 gusting 21 24.4
2019-Sep-19 14:20 045 11 gusting 18 24.4
2019-Sep-19 14:10 068 11 gusting 18 24.4
2019-Sep-19 14:00 068 11 gusting 18 24.4
2019-Sep-19 13:50 068 9 gusting 16 25.0
2019-Sep-19 13:40 068 9 gusting 17 25.0
2019-Sep-19 13:30 068 6 gusting 13 25.0
2019-Sep-19 13:20 045 6 gusting 13 25.0
2019-Sep-19 13:10 045 5 gusting 11 25.6
2019-Sep-19 13:00 045 4 gusting 9 26.1
2019-Sep-19 12:50 045 4 gusting 9 26.1
2019-Sep-19 12:40 045 4 gusting 8 26.1
2019-Sep-19 12:30 068 6 gusting 11 25.6
2019-Sep-19 12:20 068 6 gusting 13 26.1
2019-Sep-19 12:10 045 5 gusting 12 26.1
2019-Sep-19 12:00 045 3 gusting 7 27.2
2019-Sep-19 11:50 045 3 gusting 6 26.7
2019-Sep-19 11:40 068 3 gusting 7 26.1
2019-Sep-19 11:30 068 4 gusting 8 26.7
2019-Sep-19 11:20 068 1 gusting 6 26.7
2019-Sep-19 11:10 090 1 gusting 6 26.7
2019-Sep-19 11:00 090 1 gusting 4 26.7
2019-Sep-19 10:50 045 0 gusting 3 26.1
2019-Sep-19 10:40 068 1 gusting 5 25.6
2019-Sep-19 10:30 045 1 gusting 3 25.6
2019-Sep-19 10:20 045 2 gusting 7 26.7
2019-Sep-19 10:10 068 4 gusting 7 26.7
2019-Sep-19 10:00 068 5 gusting 8 26.1
2019-Sep-19 09:50 068 5 gusting 8 26.1
2019-Sep-19 09:40 068 5 gusting 9 26.1
2019-Sep-19 09:30 068 5 gusting 8 26.1
2019-Sep-19 09:20 090 2 gusting 6 27.2
2019-Sep-19 09:10 068 1 gusting 6 27.2
2019-Sep-19 09:00 27.2
2019-Sep-19 08:50 293 1 gusting 4 26.7
2019-Sep-19 08:40 068 1 gusting 5 26.1
2019-Sep-19 08:30 26.7
2019-Sep-19 08:20 045 1 gusting 5 26.7
2019-Sep-19 08:10 068 2 gusting 5 26.1
2019-Sep-19 08:00 090 3 gusting 6 25.6
2019-Sep-19 07:50 068 2 gusting 6 25.6
2019-Sep-19 07:40 045 1 gusting 4 26.1
2019-Sep-19 07:30 090 2 gusting 5 25.6
2019-Sep-19 07:20 135 0 gusting 2 26.1
2019-Sep-19 07:10 135 0 gusting 2 25.6
2019-Sep-19 07:00 090 1 gusting 4 25.6
2019-Sep-19 06:50 248 0 gusting 1 25.0
2019-Sep-19 06:40 25.0
2019-Sep-19 06:30 135 0 gusting 2 24.4
2019-Sep-19 06:20 225 0 gusting 1 23.9
2019-Sep-19 06:10 248 1 gusting 3 23.3
2019-Sep-19 06:00 338 0 gusting 2 23.3
2019-Sep-19 05:50 338 0 gusting 2 23.3
2019-Sep-19 05:40 225 0 gusting 2 22.8
2019-Sep-19 05:30 203 2 gusting 4 22.2
2019-Sep-19 05:20 180 3 gusting 5 21.7
2019-Sep-19 05:10 180 4 gusting 6 21.7
2019-Sep-19 05:00 203 3 gusting 5 22.2
2019-Sep-19 04:50 225 4 gusting 5 22.8
2019-Sep-19 04:40 203 3 gusting 5 22.2
2019-Sep-19 04:30 225 4 gusting 6 22.2
2019-Sep-19 04:20 225 3 gusting 5 21.7
2019-Sep-19 04:10 203 4 gusting 6 21.7
2019-Sep-19 04:00 225 3 gusting 7 22.2